createdAt,value
2018-02-15T00:00:03.725Z,9.5
2018-02-15T00:01:04.466Z,9.6
2018-02-15T00:02:05.191Z,9.6
2018-02-15T00:03:05.953Z,10.3
2018-02-15T00:04:06.742Z,30.1
2018-02-15T00:05:07.459Z,10.2
2018-02-15T00:06:08.186Z,9.2
2018-02-15T00:07:08.930Z,8.4
2018-02-15T00:08:09.688Z,8.9
2018-02-15T00:09:10.404Z,9.9
2018-02-15T00:10:11.118Z,9.2
2018-02-15T00:11:11.838Z,9.2
2018-02-15T00:12:12.559Z,9.2
2018-02-15T00:13:13.282Z,9.0
2018-02-15T00:14:13.996Z,16.6
2018-02-15T00:15:14.705Z,9.3
2018-02-15T00:16:15.439Z,9.3
2018-02-15T00:17:16.165Z,10.6
2018-02-15T00:18:16.935Z,21.8
2018-02-15T00:19:17.708Z,9.3
2018-02-15T00:20:18.440Z,9.7
2018-02-15T00:21:19.148Z,8.7
2018-02-15T00:22:19.858Z,9.5
2018-02-15T00:23:20.580Z,9.4
2018-02-15T00:24:21.289Z,9.3
2018-02-15T00:25:22.008Z,9.1
2018-02-15T00:26:22.717Z,9.3
2018-02-15T00:27:23.427Z,8.9
2018-02-15T00:28:24.160Z,9.6
2018-02-15T00:29:24.878Z,8.4
2018-02-15T00:30:25.598Z,8.4
2018-02-15T00:31:26.319Z,9.3
2018-02-15T00:32:27.036Z,9.2
2018-02-15T00:33:27.760Z,8.3
2018-02-15T00:34:28.499Z,9.7
2018-02-15T00:35:29.336Z,8.9
2018-02-15T00:36:30.073Z,10.1
2018-02-15T00:37:30.795Z,14.8
2018-02-15T00:38:31.503Z,53.0
2018-02-15T00:39:32.224Z,11.4
2018-02-15T00:40:32.946Z,9.1
2018-02-15T00:41:33.650Z,9.0
2018-02-15T00:42:34.366Z,9.2
2018-02-15T00:43:35.078Z,9.3
2018-02-15T00:44:35.787Z,9.2
2018-02-15T00:45:36.507Z,9.4
2018-02-15T00:46:37.230Z,9.7
2018-02-15T00:47:37.935Z,9.4
2018-02-15T00:48:38.640Z,9.9
2018-02-15T00:49:39.426Z,8.9
2018-02-15T00:50:40.150Z,9.3
2018-02-15T00:51:40.874Z,9.2
2018-02-15T00:52:41.588Z,9.7
2018-02-15T00:53:42.308Z,9.5
2018-02-15T00:54:43.028Z,9.2
2018-02-15T00:55:43.735Z,9.8
2018-02-15T00:56:44.461Z,9.7
2018-02-15T00:57:45.177Z,9.6
2018-02-15T00:58:45.898Z,10.1
2018-02-15T00:59:46.610Z,8.6
2018-02-15T01:00:47.297Z,8.9
2018-02-15T01:01:48.009Z,9.1
2018-02-15T01:02:48.789Z,9.6
2018-02-15T01:03:49.557Z,9.5
2018-02-15T01:04:50.306Z,9.2
2018-02-15T01:05:50.971Z,9.2
2018-02-15T01:06:51.738Z,9.1
2018-02-15T01:07:52.457Z,9.1
2018-02-15T01:08:53.165Z,9.1
2018-02-15T01:09:53.896Z,10.1
2018-02-15T01:10:54.679Z,9.8
2018-02-15T01:11:55.405Z,10.6
2018-02-15T01:12:56.119Z,9.2
2018-02-15T01:13:56.914Z,8.9
2018-02-15T01:14:57.600Z,10.2
2018-02-15T01:15:58.328Z,9.6
2018-02-15T01:16:59.117Z,10.0
2018-02-15T01:17:59.837Z,9.8
2018-02-15T01:19:00.578Z,9.3
2018-02-15T01:20:01.296Z,9.3
2018-02-15T01:21:02.078Z,9.5
2018-02-15T01:22:02.790Z,9.2
2018-02-15T01:23:03.497Z,9.5
2018-02-15T01:24:04.233Z,9.3
2018-02-15T01:25:04.979Z,9.5
2018-02-15T01:26:05.692Z,8.7
2018-02-15T01:27:06.414Z,9.0
2018-02-15T01:28:07.169Z,9.5
2018-02-15T01:29:07.878Z,9.0
2018-02-15T01:30:08.655Z,9.0
2018-02-15T01:31:09.446Z,9.9
2018-02-15T01:32:10.167Z,8.8
2018-02-15T01:33:10.885Z,9.3
2018-02-15T01:34:11.606Z,9.8
2018-02-15T01:35:12.368Z,9.6
2018-02-15T01:36:13.058Z,9.3
2018-02-15T01:37:13.777Z,9.5
2018-02-15T01:38:14.487Z,9.4
2018-02-15T01:39:15.218Z,9.4
2018-02-15T01:40:15.927Z,8.9
2018-02-15T01:41:16.649Z,9.6
2018-02-15T01:42:17.376Z,9.8
2018-02-15T01:43:18.091Z,8.8
2018-02-15T01:44:18.916Z,8.5
2018-02-15T01:45:19.627Z,9.2
2018-02-15T01:46:20.361Z,9.8
2018-02-15T01:47:21.087Z,9.1
2018-02-15T01:48:21.876Z,9.5
2018-02-15T01:49:22.593Z,9.0
2018-02-15T01:50:23.324Z,9.1
2018-02-15T01:51:24.051Z,9.4
2018-02-15T01:52:24.831Z,9.5
2018-02-15T01:53:25.570Z,9.3
2018-02-15T01:54:26.275Z,8.8
2018-02-15T01:55:27.002Z,9.9
2018-02-15T01:56:27.757Z,9.4
2018-02-15T01:57:28.471Z,9.1
2018-02-15T01:58:29.191Z,9.3
2018-02-15T01:59:29.898Z,9.4
2018-02-15T02:00:30.617Z,9.1
2018-02-15T02:01:31.377Z,9.6
2018-02-15T02:02:32.095Z,8.8
2018-02-15T02:03:32.808Z,9.3
2018-02-15T02:04:33.521Z,9.2
2018-02-15T02:05:34.238Z,8.9
2018-02-15T02:06:35.000Z,9.3
2018-02-15T02:07:35.762Z,9.0
2018-02-15T02:08:36.488Z,9.9
2018-02-15T02:09:37.197Z,8.9
2018-02-15T02:10:37.910Z,8.9
2018-02-15T02:11:38.611Z,9.2
2018-02-15T02:12:39.313Z,8.7
2018-02-15T02:13:40.026Z,8.8
2018-02-15T02:14:40.736Z,8.8
2018-02-15T02:15:41.459Z,8.7
2018-02-15T02:16:42.176Z,8.3
2018-02-15T02:17:42.900Z,9.6
2018-02-15T02:18:43.673Z,9.2
2018-02-15T02:19:44.467Z,9.6
2018-02-15T02:20:45.250Z,9.8
2018-02-15T02:21:45.972Z,8.6
2018-02-15T02:22:46.699Z,9.9
2018-02-15T02:23:47.423Z,9.3
2018-02-15T02:24:48.192Z,9.5
2018-02-15T02:25:48.951Z,9.4
2018-02-15T02:26:49.667Z,9.5
2018-02-15T02:27:50.483Z,9.4
2018-02-15T02:28:51.256Z,9.6
2018-02-15T02:29:52.048Z,9.8
2018-02-15T02:30:52.779Z,9.9
2018-02-15T02:31:53.488Z,9.1
2018-02-15T02:32:54.199Z,9.3
2018-02-15T02:33:54.979Z,9.8
2018-02-15T02:34:55.750Z,9.3
2018-02-15T02:35:56.471Z,10.2
2018-02-15T02:36:57.190Z,9.1
2018-02-15T02:37:57.908Z,9.8
2018-02-15T02:38:58.628Z,9.2
2018-02-15T02:39:59.346Z,9.4
2018-02-15T02:41:00.076Z,9.1
2018-02-15T02:42:00.799Z,9.7
2018-02-15T02:43:01.578Z,9.4
2018-02-15T02:44:02.292Z,8.7
2018-02-15T02:45:03.022Z,8.3
2018-02-15T02:46:03.787Z,9.7
2018-02-15T02:47:04.510Z,8.7
2018-02-15T02:48:05.296Z,8.8
2018-02-15T02:49:06.088Z,9.5
2018-02-15T02:50:06.809Z,9.3
2018-02-15T02:51:07.510Z,9.0
2018-02-15T02:52:08.232Z,9.1
2018-02-15T02:53:08.959Z,9.1
2018-02-15T02:54:09.753Z,9.7
2018-02-15T02:55:10.516Z,9.9
2018-02-15T02:56:11.278Z,9.7
2018-02-15T02:57:12.011Z,9.9
2018-02-15T02:58:12.718Z,9.8
2018-02-15T02:59:13.485Z,9.3
2018-02-15T03:00:14.258Z,10.3
2018-02-15T03:01:14.979Z,10.5
2018-02-15T03:02:15.693Z,9.1
2018-02-15T03:03:16.490Z,9.6
2018-02-15T03:04:17.215Z,9.7
2018-02-15T03:05:17.939Z,9.2
2018-02-15T03:06:18.661Z,9.9
2018-02-15T03:07:19.373Z,8.9
2018-02-15T03:08:20.149Z,8.7
2018-02-15T03:09:20.857Z,9.1
2018-02-15T03:10:21.570Z,8.9
2018-02-15T03:11:22.300Z,8.9
2018-02-15T03:12:23.021Z,9.3
2018-02-15T03:13:23.740Z,9.5
2018-02-15T03:14:24.515Z,9.6
2018-02-15T03:15:25.240Z,9.5
2018-02-15T03:16:25.956Z,9.1
2018-02-15T03:17:26.688Z,8.5
2018-02-15T03:18:27.465Z,9.1
2018-02-15T03:19:28.185Z,9.4
2018-02-15T03:20:28.951Z,9.7
2018-02-15T03:21:29.675Z,9.5
2018-02-15T03:22:30.378Z,9.0
2018-02-15T03:23:31.113Z,8.8
2018-02-15T03:24:31.820Z,8.7
2018-02-15T03:25:32.589Z,9.0
2018-02-15T03:26:33.323Z,9.6
2018-02-15T03:27:34.030Z,8.7
2018-02-15T03:28:34.835Z,8.8
2018-02-15T03:29:35.559Z,9.3
2018-02-15T03:30:36.393Z,10.5
2018-02-15T03:31:37.124Z,9.8
2018-02-15T03:32:37.866Z,9.1
2018-02-15T03:33:38.585Z,8.6
2018-02-15T03:34:39.296Z,9.5
2018-02-15T03:35:40.023Z,8.9
2018-02-15T03:36:40.803Z,9.2
2018-02-15T03:37:41.566Z,9.2
2018-02-15T03:38:42.271Z,9.4
2018-02-15T03:39:43.086Z,9.9
2018-02-15T03:40:43.838Z,9.4
2018-02-15T03:41:44.551Z,9.5
2018-02-15T03:42:45.331Z,9.2
2018-02-15T03:43:46.116Z,8.8
2018-02-15T03:44:46.839Z,9.2
2018-02-15T03:45:47.537Z,9.2
2018-02-15T03:46:48.250Z,9.4
2018-02-15T03:47:49.013Z,8.8
2018-02-15T03:48:49.730Z,9.2
2018-02-15T03:49:50.452Z,9.3
2018-02-15T03:50:51.239Z,8.6
2018-02-15T03:51:51.948Z,9.5
2018-02-15T03:52:52.719Z,9.3
2018-02-15T03:53:53.427Z,9.1
2018-02-15T03:54:54.222Z,9.3
2018-02-15T03:55:54.926Z,8.9
2018-02-15T03:56:55.640Z,9.5
2018-02-15T03:57:56.343Z,9.2
2018-02-15T03:58:57.077Z,8.9
2018-02-15T03:59:57.834Z,9.3
2018-02-15T04:00:58.541Z,8.7
2018-02-15T04:01:59.260Z,8.4
2018-02-15T04:03:00.027Z,8.8
2018-02-15T04:04:00.816Z,9.3
2018-02-15T04:05:01.539Z,8.5
2018-02-15T04:06:02.256Z,8.6
2018-02-15T04:07:02.979Z,8.8
2018-02-15T04:08:03.699Z,9.1
2018-02-15T04:09:04.408Z,9.4
2018-02-15T04:10:05.118Z,9.6
2018-02-15T04:11:05.842Z,9.0
2018-02-15T04:12:06.558Z,9.3
2018-02-15T04:13:07.334Z,9.8
2018-02-15T04:14:08.112Z,9.4
2018-02-15T04:15:08.815Z,9.2
2018-02-15T04:16:09.538Z,9.4
2018-02-15T04:17:10.266Z,9.8
2018-02-15T04:18:10.996Z,9.4
2018-02-15T04:19:11.719Z,9.3
2018-02-15T04:20:12.443Z,9.6
2018-02-15T04:21:13.164Z,9.3
2018-02-15T04:22:13.891Z,9.4
2018-02-15T04:23:14.661Z,9.9
2018-02-15T04:24:15.433Z,9.4
2018-02-15T04:25:16.198Z,9.2
2018-02-15T04:26:16.930Z,9.2
2018-02-15T04:27:17.642Z,10.1
2018-02-15T04:28:18.479Z,9.5
2018-02-15T04:29:19.182Z,8.9
2018-02-15T04:30:19.895Z,8.9
2018-02-15T04:31:20.606Z,9.2
2018-02-15T04:32:21.339Z,10.0
2018-02-15T04:33:22.103Z,9.5
2018-02-15T04:34:22.835Z,9.8
2018-02-15T04:35:23.558Z,8.9
2018-02-15T04:36:24.294Z,10.1
2018-02-15T04:37:25.083Z,10.2
2018-02-15T04:38:25.968Z,9.8
2018-02-15T04:39:26.677Z,9.8
2018-02-15T04:40:27.462Z,9.4
2018-02-15T04:41:28.185Z,9.2
2018-02-15T04:42:28.925Z,9.5
2018-02-15T04:43:29.629Z,9.6
2018-02-15T04:44:30.358Z,10.1
2018-02-15T04:45:31.082Z,10.5
2018-02-15T04:46:31.792Z,9.2
2018-02-15T04:47:32.517Z,10.1
2018-02-15T04:48:33.366Z,10.2
2018-02-15T04:49:34.085Z,9.3
2018-02-15T04:50:34.810Z,10.4
2018-02-15T04:51:35.586Z,9.7
2018-02-15T04:52:36.296Z,10.1
2018-02-15T04:53:37.023Z,9.9
2018-02-15T04:54:37.739Z,9.4
2018-02-15T04:55:38.455Z,10.4
2018-02-15T04:56:39.245Z,10.1
2018-02-15T04:57:39.949Z,9.7
2018-02-15T04:58:40.666Z,9.6
2018-02-15T04:59:41.386Z,10.8
2018-02-15T05:00:42.110Z,10.1
2018-02-15T05:01:42.804Z,10.1
2018-02-15T05:02:43.516Z,9.8
2018-02-15T05:03:44.224Z,9.9
2018-02-15T05:04:45.001Z,10.1
2018-02-15T05:05:45.761Z,10.9
2018-02-15T05:06:46.503Z,9.6
2018-02-15T05:07:47.205Z,10.3
2018-02-15T05:08:47.918Z,10.0
2018-02-15T05:09:48.638Z,9.9
2018-02-15T05:10:49.354Z,10.3
2018-02-15T05:11:50.080Z,10.3
2018-02-15T05:12:50.805Z,11.1
2018-02-15T05:13:51.538Z,9.7
2018-02-15T05:14:52.245Z,10.8
2018-02-15T05:15:52.976Z,10.0
2018-02-15T05:16:53.746Z,10.4
2018-02-15T05:17:54.536Z,10.0
2018-02-15T05:18:55.296Z,10.2
2018-02-15T05:19:56.038Z,9.8
2018-02-15T05:20:56.761Z,10.3
2018-02-15T05:21:57.539Z,10.8
2018-02-15T05:22:58.251Z,11.2
2018-02-15T05:23:59.046Z,10.1
2018-02-15T05:24:59.760Z,10.4
2018-02-15T05:26:00.464Z,11.0
2018-02-15T05:27:01.176Z,10.5
2018-02-15T05:28:01.905Z,10.5
2018-02-15T05:29:02.680Z,10.1
2018-02-15T05:30:03.470Z,10.6
2018-02-15T05:31:04.185Z,10.5
2018-02-15T05:32:04.909Z,10.7
2018-02-15T05:33:05.631Z,10.4
2018-02-15T05:34:06.380Z,11.2
2018-02-15T05:35:07.107Z,10.5
2018-02-15T05:36:07.819Z,10.2
2018-02-15T05:37:08.544Z,10.2
2018-02-15T05:38:09.319Z,10.9
2018-02-15T05:39:10.077Z,10.9
2018-02-15T05:40:10.812Z,10.4
2018-02-15T05:41:11.615Z,11.2
2018-02-15T05:42:12.337Z,11.0
2018-02-15T05:43:13.059Z,10.8
2018-02-15T05:44:13.784Z,10.7
2018-02-15T05:45:14.504Z,11.1
2018-02-15T05:46:15.272Z,10.8
2018-02-15T05:47:15.976Z,11.3
2018-02-15T05:48:16.692Z,11.2
2018-02-15T05:49:17.412Z,11.0
2018-02-15T05:50:18.132Z,10.0
2018-02-15T05:51:18.860Z,10.9
2018-02-15T05:52:19.576Z,10.6
2018-02-15T05:53:20.302Z,11.1
2018-02-15T05:54:21.060Z,11.2
2018-02-15T05:55:21.786Z,11.4
2018-02-15T05:56:22.499Z,11.5
2018-02-15T05:57:23.204Z,11.7
2018-02-15T05:58:23.983Z,11.3
2018-02-15T05:59:24.779Z,11.1
2018-02-15T06:00:25.495Z,10.3
2018-02-15T06:01:26.227Z,11.0
2018-02-15T06:02:27.021Z,10.5
2018-02-15T06:03:27.779Z,10.9
2018-02-15T06:04:28.499Z,11.0
2018-02-15T06:05:29.216Z,10.9
2018-02-15T06:06:29.925Z,11.9
2018-02-15T06:07:30.650Z,11.9
2018-02-15T06:08:31.369Z,11.2
2018-02-15T06:09:32.122Z,11.5
2018-02-15T06:10:32.850Z,11.6
2018-02-15T06:11:33.610Z,12.1
2018-02-15T06:12:34.392Z,11.4
2018-02-15T06:13:35.100Z,11.7
2018-02-15T06:14:35.811Z,11.4
2018-02-15T06:15:36.634Z,11.4
2018-02-15T06:16:37.410Z,11.0
2018-02-15T06:17:38.112Z,10.9
2018-02-15T06:18:38.828Z,11.5
2018-02-15T06:19:39.627Z,11.0
2018-02-15T06:20:40.385Z,11.5
2018-02-15T06:21:41.108Z,11.7
2018-02-15T06:22:41.928Z,11.4
2018-02-15T06:23:42.708Z,12.2
2018-02-15T06:24:43.414Z,11.4
2018-02-15T06:25:44.203Z,11.5
2018-02-15T06:26:44.969Z,11.8
2018-02-15T06:27:45.689Z,11.3
2018-02-15T06:28:46.399Z,11.2
2018-02-15T06:29:47.176Z,12.0
2018-02-15T06:30:47.959Z,11.8
2018-02-15T06:31:48.729Z,11.7
2018-02-15T06:32:49.422Z,11.8
2018-02-15T06:33:50.116Z,11.0
2018-02-15T06:34:50.836Z,11.9
2018-02-15T06:35:51.591Z,11.2
2018-02-15T06:36:52.296Z,10.5
2018-02-15T06:37:53.011Z,11.9
2018-02-15T06:38:53.769Z,12.1
2018-02-15T06:39:54.499Z,16.0
2018-02-15T06:40:55.296Z,12.9
2018-02-15T06:41:56.038Z,12.1
2018-02-15T06:42:56.757Z,11.9
2018-02-15T06:43:57.497Z,11.3
2018-02-15T06:44:58.229Z,11.9
2018-02-15T06:45:58.996Z,11.8
2018-02-15T06:46:59.713Z,12.1
2018-02-15T06:48:00.438Z,18.6
2018-02-15T06:49:01.180Z,13.5
2018-02-15T06:50:01.888Z,11.6
2018-02-15T06:51:02.630Z,12.3
2018-02-15T06:52:03.343Z,10.9
2018-02-15T06:53:04.108Z,11.4
2018-02-15T06:54:04.805Z,11.5
2018-02-15T06:55:05.526Z,11.6
2018-02-15T06:56:06.240Z,12.3
2018-02-15T06:57:07.008Z,11.9
2018-02-15T06:58:07.746Z,12.8
2018-02-15T06:59:08.471Z,11.4
2018-02-15T07:00:09.201Z,12.1
2018-02-15T07:01:09.975Z,11.9
2018-02-15T07:02:10.699Z,11.9
2018-02-15T07:03:11.425Z,12.4
2018-02-15T07:04:12.158Z,12.4
2018-02-15T07:05:12.887Z,12.1
2018-02-15T07:06:13.679Z,11.5
2018-02-15T07:07:14.460Z,12.4
2018-02-15T07:08:15.266Z,12.6
2018-02-15T07:09:16.003Z,12.9
2018-02-15T07:10:16.734Z,11.9
2018-02-15T07:11:17.465Z,12.7
2018-02-15T07:12:18.173Z,12.2
2018-02-15T07:13:18.955Z,12.8
2018-02-15T07:14:19.680Z,13.0
2018-02-15T07:15:20.419Z,13.2
2018-02-15T07:16:21.188Z,12.0
2018-02-15T07:17:21.958Z,12.2
2018-02-15T07:18:22.825Z,13.1
2018-02-15T07:19:23.908Z,12.9
2018-02-15T07:20:24.878Z,13.3
2018-02-15T07:21:25.698Z,12.6
2018-02-15T07:22:26.466Z,13.3
2018-02-15T07:23:27.304Z,13.3
2018-02-15T07:24:28.057Z,13.1
2018-02-15T07:25:29.805Z,12.6
2018-02-15T07:26:32.296Z,13.0
2018-02-15T07:27:33.294Z,12.7
2018-02-15T07:28:34.076Z,12.7
2018-02-15T07:29:34.917Z,13.0
2018-02-15T07:30:35.839Z,13.3
2018-02-15T07:31:37.277Z,12.1
2018-02-15T07:32:38.331Z,12.8
2018-02-15T07:33:39.118Z,13.6
2018-02-15T07:34:40.000Z,13.2
2018-02-15T07:35:40.883Z,12.5
2018-02-15T07:36:41.660Z,13.1
2018-02-15T07:37:42.455Z,13.1
2018-02-15T07:38:43.194Z,13.4
2018-02-15T07:39:43.983Z,12.6
2018-02-15T07:40:44.669Z,13.2
2018-02-15T07:41:45.398Z,13.5
2018-02-15T07:42:46.142Z,14.4
2018-02-15T07:43:46.904Z,13.5
2018-02-15T07:44:47.631Z,13.5
2018-02-15T07:45:48.425Z,13.0
2018-02-15T07:46:49.153Z,12.8
2018-02-15T07:47:49.932Z,13.2
2018-02-15T07:48:50.650Z,12.0
2018-02-15T07:49:51.375Z,13.5
2018-02-15T07:50:52.112Z,13.6
2018-02-15T07:51:52.854Z,12.8
2018-02-15T07:52:54.743Z,13.1
2018-02-15T07:53:55.940Z,13.0
2018-02-15T07:54:57.246Z,12.9
2018-02-15T07:55:58.058Z,13.5
2018-02-15T07:56:58.786Z,13.3
2018-02-15T07:57:59.600Z,13.7
2018-02-15T07:59:00.321Z,13.0
2018-02-15T08:00:01.060Z,13.8
2018-02-15T08:01:03.173Z,13.0
2018-02-15T08:02:04.187Z,14.0
2018-02-15T08:03:04.868Z,13.6
2018-02-15T08:04:05.629Z,13.4
2018-02-15T08:05:06.411Z,13.1
2018-02-15T08:06:07.131Z,13.3
2018-02-15T08:07:07.907Z,13.5
2018-02-15T08:08:08.675Z,13.5
2018-02-15T08:09:09.390Z,13.9
2018-02-15T08:10:10.121Z,13.4
2018-02-15T08:11:10.834Z,12.9
2018-02-15T08:12:11.560Z,13.3
2018-02-15T08:13:12.276Z,13.5
2018-02-15T08:14:13.104Z,14.1
2018-02-15T08:15:13.776Z,13.6
2018-02-15T08:16:14.559Z,14.9
2018-02-15T08:17:15.280Z,15.3
2018-02-15T08:18:16.009Z,14.5
2018-02-15T08:19:16.746Z,14.6
2018-02-15T08:20:17.488Z,14.4
2018-02-15T08:21:18.281Z,14.2
2018-02-15T08:22:18.979Z,14.4
2018-02-15T08:23:19.963Z,14.7
2018-02-15T08:24:20.681Z,15.0
2018-02-15T08:25:21.404Z,15.1
2018-02-15T08:26:22.136Z,14.3
2018-02-15T08:27:22.910Z,16.0
2018-02-15T08:28:23.639Z,14.4
2018-02-15T08:29:24.356Z,14.3
2018-02-15T08:30:25.073Z,14.1
2018-02-15T08:31:25.869Z,14.3
2018-02-15T08:32:26.606Z,14.4
2018-02-15T08:33:27.351Z,14.1
2018-02-15T08:34:28.058Z,14.9
2018-02-15T08:35:28.772Z,13.5
2018-02-15T08:36:29.522Z,14.9
2018-02-15T08:37:30.339Z,14.9
2018-02-15T08:38:31.085Z,14.4
2018-02-15T08:39:31.847Z,15.1
2018-02-15T08:40:32.649Z,14.7
2018-02-15T08:41:33.420Z,14.8
2018-02-15T08:42:34.151Z,14.9
2018-02-15T08:43:34.857Z,15.0
2018-02-15T08:44:35.593Z,14.3
2018-02-15T08:45:36.434Z,16.4
2018-02-15T08:46:38.014Z,13.8
2018-02-15T08:47:38.974Z,16.4
2018-02-15T08:48:39.696Z,15.4
2018-02-15T08:49:40.416Z,15.7
2018-02-15T08:50:41.206Z,17.1
2018-02-15T08:51:41.985Z,16.2
2018-02-15T08:52:42.716Z,17.4
2018-02-15T08:53:43.528Z,15.9
2018-02-15T08:54:44.289Z,17.2
2018-02-15T08:55:45.010Z,15.2
2018-02-15T08:56:45.725Z,17.0
2018-02-15T08:57:46.534Z,17.7
2018-02-15T08:58:48.286Z,18.0
2018-02-15T08:59:48.952Z,17.5
2018-02-15T09:00:49.829Z,18.0
2018-02-15T09:01:50.846Z,17.7
2018-02-15T09:02:51.530Z,16.8
2018-02-15T09:03:52.261Z,16.5
2018-02-15T09:04:52.982Z,17.6
2018-02-15T09:05:53.716Z,17.7
2018-02-15T09:06:54.446Z,16.0
2018-02-15T09:07:55.236Z,17.3
2018-02-15T09:08:55.969Z,17.7
2018-02-15T09:09:56.693Z,18.9
2018-02-15T09:10:57.408Z,18.2
2018-02-15T09:11:58.125Z,17.3
2018-02-15T09:12:59.008Z,17.3
2018-02-15T09:13:59.666Z,17.4
2018-02-15T09:15:00.399Z,16.6
2018-02-15T09:16:01.172Z,18.3
2018-02-15T09:17:01.885Z,18.1
2018-02-15T09:18:02.618Z,18.5
2018-02-15T09:19:04.431Z,17.1
2018-02-15T09:20:05.394Z,18.5
2018-02-15T09:21:06.120Z,19.0
2018-02-15T09:22:06.860Z,18.5
2018-02-15T09:23:07.610Z,19.0
2018-02-15T09:24:08.421Z,19.2
2018-02-15T09:25:09.141Z,18.7
2018-02-15T09:26:09.858Z,19.3
2018-02-15T09:27:10.575Z,19.5
2018-02-15T09:28:11.584Z,17.4
2018-02-15T09:29:12.286Z,17.7
2018-02-15T09:30:13.008Z,18.8
2018-02-15T09:31:13.817Z,19.7
2018-02-15T09:32:14.626Z,18.8
2018-02-15T09:33:15.396Z,17.7
2018-02-15T09:34:16.174Z,18.6
2018-02-15T09:35:16.896Z,18.4
2018-02-15T09:36:17.636Z,18.8
2018-02-15T09:37:18.407Z,17.4
2018-02-15T09:38:19.160Z,18.7
2018-02-15T09:39:19.940Z,17.4
2018-02-15T09:40:20.647Z,16.8
2018-02-15T09:41:21.449Z,17.7
2018-02-15T09:42:22.176Z,17.9
2018-02-15T09:43:23.160Z,17.1
2018-02-15T09:44:24.047Z,17.5
2018-02-15T09:45:24.876Z,16.9
2018-02-15T09:46:25.603Z,18.3
2018-02-15T09:47:26.329Z,18.3
2018-02-15T09:48:28.219Z,16.9
2018-02-15T09:49:30.244Z,16.0
2018-02-15T09:50:31.399Z,15.7
2018-02-15T09:51:32.233Z,17.5
2018-02-15T09:52:33.011Z,16.9
2018-02-15T09:53:33.744Z,18.1
2018-02-15T09:54:34.464Z,16.9
2018-02-15T09:55:35.188Z,16.6
2018-02-15T09:56:35.939Z,17.8
2018-02-15T09:57:36.686Z,17.0
2018-02-15T09:58:37.420Z,16.4
2018-02-15T09:59:38.175Z,17.6
2018-02-15T10:00:38.953Z,16.9
2018-02-15T10:01:39.680Z,17.3
2018-02-15T10:02:40.408Z,16.3
2018-02-15T10:03:41.219Z,16.8
2018-02-15T10:04:41.940Z,16.8
2018-02-15T10:05:42.722Z,17.1
2018-02-15T10:06:43.449Z,16.8
2018-02-15T10:07:44.166Z,17.2
2018-02-15T10:08:44.907Z,18.0
2018-02-15T10:09:45.635Z,17.3
2018-02-15T10:10:46.413Z,16.7
2018-02-15T10:11:47.204Z,16.3
2018-02-15T10:12:47.958Z,16.2
2018-02-15T10:13:48.748Z,15.7
2018-02-15T10:14:49.476Z,16.1
2018-02-15T10:15:50.219Z,16.6
2018-02-15T10:16:51.005Z,16.8
2018-02-15T10:17:51.803Z,16.9
2018-02-15T10:18:52.596Z,15.9
2018-02-15T10:19:53.320Z,16.3
2018-02-15T10:20:54.055Z,15.9
2018-02-15T10:21:54.789Z,16.0
2018-02-15T10:22:55.515Z,16.0
2018-02-15T10:23:56.259Z,17.1
2018-02-15T10:24:56.987Z,14.9
2018-02-15T10:25:57.720Z,16.5
2018-02-15T10:26:58.450Z,17.2
2018-02-15T10:27:59.216Z,16.6
2018-02-15T10:28:59.946Z,17.3
2018-02-15T10:30:00.655Z,16.9
2018-02-15T10:31:01.370Z,17.2
2018-02-15T10:32:02.172Z,17.2
2018-02-15T10:33:02.961Z,16.3
2018-02-15T10:34:03.752Z,16.5
2018-02-15T10:35:04.497Z,16.9
2018-02-15T10:36:05.274Z,17.1
2018-02-15T10:37:06.009Z,17.2
2018-02-15T10:38:06.811Z,17.5
2018-02-15T10:39:07.574Z,17.5
2018-02-15T10:40:08.303Z,16.6
2018-02-15T10:41:09.142Z,16.8
2018-02-15T10:42:09.938Z,17.0
2018-02-15T10:43:10.669Z,16.5
2018-02-15T10:44:11.399Z,18.0
2018-02-15T10:45:12.131Z,17.1
2018-02-15T10:46:12.844Z,16.0
2018-02-15T10:47:13.640Z,16.4
2018-02-15T10:48:14.952Z,16.9
2018-02-15T10:49:16.549Z,17.2
2018-02-15T10:50:17.465Z,16.6
2018-02-15T10:51:18.195Z,17.5
2018-02-15T10:52:18.909Z,16.1
2018-02-15T10:53:19.638Z,16.9
2018-02-15T10:54:20.365Z,16.7
2018-02-15T10:55:21.136Z,17.0
2018-02-15T10:56:21.873Z,16.5
2018-02-15T10:57:22.650Z,17.1
2018-02-15T10:58:23.375Z,17.3
2018-02-15T10:59:24.404Z,16.1
2018-02-15T11:00:25.040Z,16.9
2018-02-15T11:01:25.777Z,16.4
2018-02-15T11:02:27.015Z,17.0
2018-02-15T11:03:28.956Z,16.9
2018-02-15T11:04:30.938Z,16.8
2018-02-15T11:05:33.104Z,18.1
2018-02-15T11:06:34.365Z,17.4
2018-02-15T11:07:37.013Z,16.0
2018-02-15T11:08:38.849Z,16.5
2018-02-15T11:09:40.396Z,16.5
2018-02-15T11:10:41.076Z,17.7
2018-02-15T11:11:41.805Z,16.4
2018-02-15T11:12:42.989Z,16.7
2018-02-15T11:13:43.718Z,16.9
2018-02-15T11:14:45.188Z,17.5
2018-02-15T11:15:46.094Z,17.4
2018-02-15T11:16:46.873Z,16.4
2018-02-15T11:17:47.669Z,17.0
2018-02-15T11:18:48.459Z,16.3
2018-02-15T11:19:49.338Z,16.2
2018-02-15T11:20:50.105Z,16.3
2018-02-15T11:21:50.879Z,15.8
2018-02-15T11:22:51.596Z,15.8
2018-02-15T11:23:52.325Z,16.9
2018-02-15T11:24:53.060Z,16.8
2018-02-15T11:25:53.846Z,16.2
2018-02-15T11:26:54.576Z,17.7
2018-02-15T11:27:55.334Z,17.6
2018-02-15T11:28:56.099Z,17.8
2018-02-15T11:29:56.826Z,17.4
2018-02-15T11:30:57.556Z,17.3
2018-02-15T11:31:58.326Z,16.0
2018-02-15T11:32:59.048Z,17.1
2018-02-15T11:33:59.791Z,16.2
2018-02-15T11:35:00.523Z,17.9
2018-02-15T11:36:01.292Z,17.3
2018-02-15T11:37:02.034Z,17.3
2018-02-15T11:38:02.807Z,17.6
2018-02-15T11:39:03.600Z,18.3
2018-02-15T11:40:04.316Z,17.8
2018-02-15T11:41:05.039Z,17.5
2018-02-15T11:42:05.786Z,17.3
2018-02-15T11:43:06.629Z,17.8
2018-02-15T11:44:07.414Z,16.0
2018-02-15T11:45:08.216Z,17.5
2018-02-15T11:46:08.953Z,17.9
2018-02-15T11:47:09.669Z,17.1
2018-02-15T11:48:10.394Z,17.0
2018-02-15T11:49:11.129Z,16.9
2018-02-15T11:50:11.852Z,17.6
2018-02-15T11:51:12.627Z,17.5
2018-02-15T11:52:13.356Z,17.4
2018-02-15T11:53:14.980Z,17.2
2018-02-15T11:54:15.650Z,17.9
2018-02-15T11:55:16.446Z,17.3
2018-02-15T11:56:17.169Z,17.8
2018-02-15T11:57:17.909Z,17.6
2018-02-15T11:58:18.686Z,18.0
2018-02-15T11:59:19.465Z,18.0
2018-02-15T12:00:20.246Z,17.5
2018-02-15T12:01:21.042Z,18.2
2018-02-15T12:02:21.756Z,17.5
2018-02-15T12:03:22.466Z,19.0
2018-02-15T12:04:23.188Z,17.9
2018-02-15T12:05:23.923Z,18.0
2018-02-15T12:06:24.657Z,16.7
2018-02-15T12:07:25.373Z,17.7
2018-02-15T12:08:26.099Z,17.7
2018-02-15T12:09:26.821Z,17.1
2018-02-15T12:10:27.547Z,17.2
2018-02-15T12:11:28.267Z,17.7
2018-02-15T12:12:29.103Z,17.4
2018-02-15T12:13:29.838Z,18.2
2018-02-15T12:14:30.615Z,17.4
2018-02-15T12:15:31.370Z,18.2
2018-02-15T12:16:32.107Z,17.6
2018-02-15T12:17:32.894Z,17.4
2018-02-15T12:18:33.651Z,17.4
2018-02-15T12:19:34.391Z,17.6
2018-02-15T12:20:35.179Z,18.4
2018-02-15T12:21:35.919Z,17.6
2018-02-15T12:22:36.692Z,17.8
2018-02-15T12:23:37.470Z,16.7
2018-02-15T12:24:38.184Z,18.4
2018-02-15T12:25:38.945Z,17.5
2018-02-15T12:26:39.699Z,17.2
2018-02-15T12:27:40.416Z,17.9
2018-02-15T12:28:41.171Z,17.7
2018-02-15T12:29:41.916Z,16.5
2018-02-15T12:30:42.653Z,16.8
2018-02-15T12:31:43.415Z,17.9
2018-02-15T12:32:44.151Z,18.0
2018-02-15T12:33:44.944Z,16.5
2018-02-15T12:34:45.671Z,17.2
2018-02-15T12:35:46.405Z,17.0
2018-02-15T12:36:47.178Z,17.2
2018-02-15T12:37:47.900Z,17.8
2018-02-15T12:38:48.618Z,16.0
2018-02-15T12:39:49.409Z,17.2
2018-02-15T12:40:50.187Z,17.1
2018-02-15T12:41:50.862Z,17.5
2018-02-15T12:42:51.582Z,18.0
2018-02-15T12:43:52.319Z,18.0
2018-02-15T12:44:53.039Z,18.0
2018-02-15T12:45:53.772Z,18.1
2018-02-15T12:46:54.617Z,17.3
2018-02-15T12:47:55.366Z,17.0
2018-02-15T12:48:56.192Z,17.9
2018-02-15T12:49:56.868Z,17.4
2018-02-15T12:50:57.601Z,16.8
2018-02-15T12:51:58.361Z,17.8
2018-02-15T12:52:59.070Z,17.2
2018-02-15T12:53:59.827Z,17.5
2018-02-15T12:55:00.578Z,17.1
2018-02-15T12:56:01.299Z,17.2
2018-02-15T12:57:02.060Z,16.2
2018-02-15T12:58:02.763Z,17.6
2018-02-15T12:59:03.533Z,15.8
2018-02-15T13:00:04.342Z,16.5
2018-02-15T13:01:05.069Z,17.6
2018-02-15T13:02:05.800Z,18.0
2018-02-15T13:03:06.524Z,17.3
2018-02-15T13:04:07.299Z,17.6
2018-02-15T13:05:08.029Z,17.7
2018-02-15T13:06:08.761Z,16.4
2018-02-15T13:07:09.551Z,16.7
2018-02-15T13:08:10.345Z,17.8
2018-02-15T13:09:11.119Z,17.6
2018-02-15T13:10:11.848Z,16.1
2018-02-15T13:11:12.645Z,18.0
2018-02-15T13:12:13.380Z,17.6
2018-02-15T13:13:14.108Z,17.5
2018-02-15T13:14:14.876Z,18.3
2018-02-15T13:15:15.680Z,17.7
2018-02-15T13:16:16.449Z,17.4
2018-02-15T13:17:17.162Z,17.2
2018-02-15T13:18:17.891Z,18.3
2018-02-15T13:19:18.701Z,18.4
2018-02-15T13:20:19.426Z,16.8
2018-02-15T13:21:20.214Z,17.2
2018-02-15T13:22:20.950Z,17.7
2018-02-15T13:23:21.731Z,17.1
2018-02-15T13:24:22.504Z,18.5
2018-02-15T13:25:23.291Z,17.7
2018-02-15T13:26:24.026Z,18.0
2018-02-15T13:27:24.767Z,15.9
2018-02-15T13:28:25.503Z,16.1
2018-02-15T13:29:26.233Z,17.3
2018-02-15T13:30:26.965Z,15.6
2018-02-15T13:31:27.701Z,16.7
2018-02-15T13:32:28.499Z,16.2
2018-02-15T13:33:29.220Z,16.9
2018-02-15T13:34:29.953Z,16.3
2018-02-15T13:35:30.715Z,16.4
2018-02-15T13:36:31.435Z,16.3
2018-02-15T13:37:32.165Z,16.4